sensor_id;sensor_type;location;lat;lon;timestamp;P1;durP1;ratioP1;P2;durP2;ratioP2
41629;SDS011;27322;49.488;8.480;2022-09-09T00:04:28;1999.90;;;999.90;;
41629;SDS011;27322;49.488;8.480;2022-09-09T00:09:55;1999.90;;;999.90;;
41629;SDS011;27322;49.488;8.480;2022-09-09T00:12:34;1999.90;;;999.90;;
41629;SDS011;27322;49.488;8.480;2022-09-09T00:15:07;1999.90;;;999.90;;
41629;SDS011;27322;49.488;8.480;2022-09-09T00:28:23;1999.90;;;999.90;;
41629;SDS011;27322;49.488;8.480;2022-09-09T00:30:52;1999.90;;;999.90;;
41629;SDS011;27322;49.488;8.480;2022-09-09T00:33:27;1999.90;;;999.90;;
41629;SDS011;27322;49.488;8.480;2022-09-09T00:35:56;1999.90;;;999.90;;
41629;SDS011;27322;49.488;8.480;2022-09-09T00:38:24;1999.90;;;999.90;;
41629;SDS011;27322;49.488;8.480;2022-09-09T00:43:55;1999.90;;;999.90;;
41629;SDS011;27322;49.488;8.480;2022-09-09T00:49:33;1999.90;;;999.90;;
41629;SDS011;27322;49.488;8.480;2022-09-09T00:52:22;1999.90;;;999.90;;
41629;SDS011;27322;49.488;8.480;2022-09-09T00:55:09;1999.90;;;997.83;;
41629;SDS011;27322;49.488;8.480;2022-09-09T00:57:40;1999.90;;;961.85;;
41629;SDS011;27322;49.488;8.480;2022-09-09T01:00:17;1999.90;;;824.25;;
41629;SDS011;27322;49.488;8.480;2022-09-09T01:03:30;1999.90;;;991.70;;
41629;SDS011;27322;49.488;8.480;2022-09-09T01:08:00;1999.90;;;964.25;;
41629;SDS011;27322;49.488;8.480;2022-09-09T01:13:20;1999.90;;;923.80;;
41629;SDS011;27322;49.488;8.480;2022-09-09T01:15:55;1999.90;;;903.53;;
41629;SDS011;27322;49.488;8.480;2022-09-09T01:18:26;1999.90;;;946.38;;
41629;SDS011;27322;49.488;8.480;2022-09-09T01:26:40;1999.90;;;999.90;;
41629;SDS011;27322;49.488;8.480;2022-09-09T01:29:08;1999.90;;;989.50;;
41629;SDS011;27322;49.488;8.480;2022-09-09T01:31:38;1999.90;;;991.55;;
41629;SDS011;27322;49.488;8.480;2022-09-09T01:34:13;1999.90;;;999.90;;
41629;SDS011;27322;49.488;8.480;2022-09-09T01:39:27;1999.90;;;999.90;;
41629;SDS011;27322;49.488;8.480;2022-09-09T01:41:53;1999.90;;;861.80;;
41629;SDS011;27322;49.488;8.480;2022-09-09T01:44:20;1999.90;;;816.13;;
41629;SDS011;27322;49.488;8.480;2022-09-09T01:46:47;1999.90;;;945.38;;
41629;SDS011;27322;49.488;8.480;2022-09-09T01:49:13;1999.90;;;851.72;;
41629;SDS011;27322;49.488;8.480;2022-09-09T01:51:38;1999.90;;;902.10;;
41629;SDS011;27322;49.488;8.480;2022-09-09T01:54:07;1999.90;;;948.55;;
41629;SDS011;27322;49.488;8.480;2022-09-09T02:02:14;1999.90;;;800.75;;
41629;SDS011;27322;49.488;8.480;2022-09-09T02:04:44;1999.90;;;836.38;;
41629;SDS011;27322;49.488;8.480;2022-09-09T02:09:52;1999.90;;;999.90;;
41629;SDS011;27322;49.488;8.480;2022-09-09T02:12:25;1999.90;;;918.83;;
41629;SDS011;27322;49.488;8.480;2022-09-09T02:14:58;1999.90;;;932.05;;
41629;SDS011;27322;49.488;8.480;2022-09-09T02:17:31;1999.90;;;946.22;;
41629;SDS011;27322;49.488;8.480;2022-09-09T02:20:11;1999.90;;;914.60;;
41629;SDS011;27322;49.488;8.480;2022-09-09T02:22:39;1999.90;;;838.38;;
41629;SDS011;27322;49.488;8.480;2022-09-09T02:25:09;1999.90;;;943.90;;
41629;SDS011;27322;49.488;8.480;2022-09-09T02:27:38;1999.90;;;824.55;;
41629;SDS011;27322;49.488;8.480;2022-09-09T02:30:06;1999.90;;;948.47;;
41629;SDS011;27322;49.488;8.480;2022-09-09T02:32:32;1999.90;;;934.80;;
41629;SDS011;27322;49.488;8.480;2022-09-09T02:35:05;1999.90;;;949.90;;
41629;SDS011;27322;49.488;8.480;2022-09-09T02:37:37;1999.90;;;924.08;;
41629;SDS011;27322;49.488;8.480;2022-09-09T02:40:05;1999.90;;;950.25;;
41629;SDS011;27322;49.488;8.480;2022-09-09T02:42:38;1999.90;;;761.13;;
41629;SDS011;27322;49.488;8.480;2022-09-09T02:45:15;1999.90;;;794.90;;
41629;SDS011;27322;49.488;8.480;2022-09-09T02:50:33;1999.90;;;999.90;;
41629;SDS011;27322;49.488;8.480;2022-09-09T02:58:01;1999.90;;;821.85;;
41629;SDS011;27322;49.488;8.480;2022-09-09T03:00:31;1999.90;;;609.67;;
41629;SDS011;27322;49.488;8.480;2022-09-09T03:02:57;1999.90;;;470.83;;
41629;SDS011;27322;49.488;8.480;2022-09-09T03:05:23;6.68;;;0.80;;
41629;SDS011;27322;49.488;8.480;2022-09-09T03:07:49;4.35;;;0.95;;
41629;SDS011;27322;49.488;8.480;2022-09-09T03:10:15;6.90;;;0.80;;
41629;SDS011;27322;49.488;8.480;2022-09-09T03:12:42;5.57;;;0.90;;
41629;SDS011;27322;49.488;8.480;2022-09-09T03:15:08;2.10;;;0.80;;
41629;SDS011;27322;49.488;8.480;2022-09-09T03:17:34;3.75;;;0.82;;
41629;SDS011;27322;49.488;8.480;2022-09-09T03:20:02;9.50;;;0.90;;
41629;SDS011;27322;49.488;8.480;2022-09-09T03:22:31;3.72;;;0.70;;
41629;SDS011;27322;49.488;8.480;2022-09-09T03:24:56;3.08;;;0.70;;
41629;SDS011;27322;49.488;8.480;2022-09-09T03:27:22;3.30;;;0.80;;
41629;SDS011;27322;49.488;8.480;2022-09-09T03:29:48;3.58;;;0.73;;
41629;SDS011;27322;49.488;8.480;2022-09-09T03:32:16;3.90;;;0.80;;
41629;SDS011;27322;49.488;8.480;2022-09-09T03:34:42;4.50;;;1.00;;
41629;SDS011;27322;49.488;8.480;2022-09-09T03:37:08;3.83;;;0.82;;
41629;SDS011;27322;49.488;8.480;2022-09-09T03:39:34;4.55;;;0.80;;
41629;SDS011;27322;49.488;8.480;2022-09-09T03:41:59;3.67;;;0.80;;
41629;SDS011;27322;49.488;8.480;2022-09-09T03:44:28;3.33;;;0.75;;
41629;SDS011;27322;49.488;8.480;2022-09-09T03:46:55;6.20;;;1.10;;
41629;SDS011;27322;49.488;8.480;2022-09-09T03:49:20;4.88;;;1.00;;
41629;SDS011;27322;49.488;8.480;2022-09-09T03:51:47;3.88;;;0.70;;
41629;SDS011;27322;49.488;8.480;2022-09-09T03:54:13;6.70;;;0.88;;
41629;SDS011;27322;49.488;8.480;2022-09-09T03:56:38;3.13;;;0.60;;
41629;SDS011;27322;49.488;8.480;2022-09-09T03:59:06;3.50;;;0.70;;
41629;SDS011;27322;49.488;8.480;2022-09-09T04:01:33;3.10;;;0.60;;
41629;SDS011;27322;49.488;8.480;2022-09-09T04:03:59;4.75;;;0.75;;
41629;SDS011;27322;49.488;8.480;2022-09-09T04:06:27;6.47;;;0.73;;
41629;SDS011;27322;49.488;8.480;2022-09-09T04:08:53;3.95;;;0.60;;
41629;SDS011;27322;49.488;8.480;2022-09-09T04:11:18;2.58;;;0.82;;
41629;SDS011;27322;49.488;8.480;2022-09-09T04:13:44;2.72;;;0.60;;
41629;SDS011;27322;49.488;8.480;2022-09-09T04:16:10;3.67;;;0.73;;
41629;SDS011;27322;49.488;8.480;2022-09-09T04:18:38;5.03;;;0.60;;
41629;SDS011;27322;49.488;8.480;2022-09-09T04:21:04;4.80;;;0.70;;
41629;SDS011;27322;49.488;8.480;2022-09-09T04:23:31;2.55;;;0.60;;
41629;SDS011;27322;49.488;8.480;2022-09-09T04:25:59;6.97;;;0.70;;
41629;SDS011;27322;49.488;8.480;2022-09-09T04:28:29;4.55;;;0.57;;
41629;SDS011;27322;49.488;8.480;2022-09-09T04:30:56;2.03;;;0.60;;
41629;SDS011;27322;49.488;8.480;2022-09-09T04:33:25;3.20;;;0.50;;
41629;SDS011;27322;49.488;8.480;2022-09-09T04:35:51;2.40;;;0.75;;
41629;SDS011;27322;49.488;8.480;2022-09-09T04:38:18;2.72;;;0.50;;
41629;SDS011;27322;49.488;8.480;2022-09-09T04:40:48;3.15;;;0.50;;
41629;SDS011;27322;49.488;8.480;2022-09-09T04:43:16;4.47;;;0.60;;
41629;SDS011;27322;49.488;8.480;2022-09-09T04:45:43;3.78;;;0.65;;
41629;SDS011;27322;49.488;8.480;2022-09-09T04:48:11;6.05;;;0.80;;
41629;SDS011;27322;49.488;8.480;2022-09-09T04:50:37;2.35;;;0.50;;
41629;SDS011;27322;49.488;8.480;2022-09-09T04:53:03;2.13;;;0.50;;
41629;SDS011;27322;49.488;8.480;2022-09-09T04:55:30;4.63;;;0.60;;
41629;SDS011;27322;49.488;8.480;2022-09-09T04:57:56;3.13;;;0.63;;
41629;SDS011;27322;49.488;8.480;2022-09-09T05:00:22;3.78;;;0.60;;
41629;SDS011;27322;49.488;8.480;2022-09-09T05:02:48;2.63;;;0.52;;
41629;SDS011;27322;49.488;8.480;2022-09-09T05:05:14;3.25;;;0.60;;
41629;SDS011;27322;49.488;8.480;2022-09-09T05:07:40;3.90;;;0.63;;
41629;SDS011;27322;49.488;8.480;2022-09-09T05:10:06;6.47;;;0.77;;
41629;SDS011;27322;49.488;8.480;2022-09-09T05:12:32;3.08;;;0.50;;
41629;SDS011;27322;49.488;8.480;2022-09-09T05:14:58;4.00;;;0.57;;
41629;SDS011;27322;49.488;8.480;2022-09-09T05:17:23;4.45;;;0.68;;
41629;SDS011;27322;49.488;8.480;2022-09-09T05:19:49;2.08;;;0.50;;
41629;SDS011;27322;49.488;8.480;2022-09-09T05:22:18;4.85;;;0.63;;
41629;SDS011;27322;49.488;8.480;2022-09-09T05:24:45;2.63;;;0.45;;
41629;SDS011;27322;49.488;8.480;2022-09-09T05:27:11;6.97;;;0.68;;
41629;SDS011;27322;49.488;8.480;2022-09-09T05:29:37;2.33;;;0.40;;
41629;SDS011;27322;49.488;8.480;2022-09-09T05:32:03;4.38;;;0.43;;
41629;SDS011;27322;49.488;8.480;2022-09-09T05:34:29;3.67;;;0.57;;
41629;SDS011;27322;49.488;8.480;2022-09-09T05:36:55;4.43;;;0.60;;
41629;SDS011;27322;49.488;8.480;2022-09-09T05:39:20;5.38;;;0.60;;
41629;SDS011;27322;49.488;8.480;2022-09-09T05:41:46;4.05;;;0.43;;
41629;SDS011;27322;49.488;8.480;2022-09-09T05:44:12;3.05;;;0.43;;
41629;SDS011;27322;49.488;8.480;2022-09-09T05:46:38;1.77;;;0.40;;
41629;SDS011;27322;49.488;8.480;2022-09-09T05:49:04;2.63;;;0.47;;
41629;SDS011;27322;49.488;8.480;2022-09-09T05:51:31;3.35;;;0.68;;
41629;SDS011;27322;49.488;8.480;2022-09-09T05:53:56;2.75;;;0.63;;
41629;SDS011;27322;49.488;8.480;2022-09-09T05:56:26;3.92;;;0.60;;
41629;SDS011;27322;49.488;8.480;2022-09-09T05:58:53;3.38;;;0.60;;
41629;SDS011;27322;49.488;8.480;2022-09-09T06:01:23;3.60;;;0.50;;
41629;SDS011;27322;49.488;8.480;2022-09-09T06:03:53;3.17;;;0.68;;
41629;SDS011;27322;49.488;8.480;2022-09-09T06:06:21;5.30;;;0.60;;
41629;SDS011;27322;49.488;8.480;2022-09-09T06:08:50;3.47;;;0.60;;
41629;SDS011;27322;49.488;8.480;2022-09-09T06:13:43;4.00;;;0.70;;
41629;SDS011;27322;49.488;8.480;2022-09-09T06:16:10;4.85;;;0.50;;
41629;SDS011;27322;49.488;8.480;2022-09-09T06:18:37;3.60;;;0.50;;
41629;SDS011;27322;49.488;8.480;2022-09-09T06:21:04;3.97;;;0.73;;
41629;SDS011;27322;49.488;8.480;2022-09-09T06:23:32;2.78;;;0.40;;
41629;SDS011;27322;49.488;8.480;2022-09-09T06:26:05;1.83;;;0.40;;
41629;SDS011;27322;49.488;8.480;2022-09-09T06:28:34;3.60;;;0.50;;
41629;SDS011;27322;49.488;8.480;2022-09-09T06:31:01;2.40;;;0.40;;
41629;SDS011;27322;49.488;8.480;2022-09-09T06:33:33;3.10;;;0.50;;
41629;SDS011;27322;49.488;8.480;2022-09-09T06:36:00;3.20;;;0.60;;
41629;SDS011;27322;49.488;8.480;2022-09-09T06:38:26;3.00;;;0.50;;
41629;SDS011;27322;49.488;8.480;2022-09-09T06:40:56;5.97;;;0.90;;
41629;SDS011;27322;49.488;8.480;2022-09-09T06:43:24;2.28;;;0.55;;
41629;SDS011;27322;49.488;8.480;2022-09-09T06:48:27;5.22;;;0.93;;
41629;SDS011;27322;49.488;8.480;2022-09-09T06:51:07;3.65;;;0.50;;
41629;SDS011;27322;49.488;8.480;2022-09-09T06:53:33;3.55;;;0.50;;
41629;SDS011;27322;49.488;8.480;2022-09-09T06:56:00;3.53;;;0.38;;
41629;SDS011;27322;49.488;8.480;2022-09-09T06:58:27;2.53;;;0.60;;
41629;SDS011;27322;49.488;8.480;2022-09-09T07:01:00;4.70;;;0.57;;
41629;SDS011;27322;49.488;8.480;2022-09-09T07:03:27;3.88;;;0.70;;
41629;SDS011;27322;49.488;8.480;2022-09-09T07:05:54;5.05;;;0.98;;
41629;SDS011;27322;49.488;8.480;2022-09-09T07:08:21;2.53;;;0.60;;
41629;SDS011;27322;49.488;8.480;2022-09-09T07:10:47;3.50;;;0.60;;
41629;SDS011;27322;49.488;8.480;2022-09-09T07:13:13;3.97;;;0.70;;
41629;SDS011;27322;49.488;8.480;2022-09-09T07:15:40;4.03;;;0.60;;
41629;SDS011;27322;49.488;8.480;2022-09-09T07:18:06;3.20;;;0.57;;
41629;SDS011;27322;49.488;8.480;2022-09-09T07:20:32;3.63;;;0.70;;
41629;SDS011;27322;49.488;8.480;2022-09-09T07:22:57;5.28;;;0.80;;
41629;SDS011;27322;49.488;8.480;2022-09-09T07:25:24;3.30;;;0.65;;
41629;SDS011;27322;49.488;8.480;2022-09-09T07:27:53;4.38;;;0.65;;
41629;SDS011;27322;49.488;8.480;2022-09-09T07:30:19;4.97;;;0.70;;
41629;SDS011;27322;49.488;8.480;2022-09-09T07:32:45;6.00;;;1.00;;
41629;SDS011;27322;49.488;8.480;2022-09-09T07:35:11;5.68;;;0.57;;
41629;SDS011;27322;49.488;8.480;2022-09-09T07:37:37;3.08;;;0.60;;
41629;SDS011;27322;49.488;8.480;2022-09-09T07:40:03;3.25;;;0.68;;
41629;SDS011;27322;49.488;8.480;2022-09-09T07:42:30;6.13;;;1.02;;
41629;SDS011;27322;49.488;8.480;2022-09-09T07:44:55;3.10;;;0.77;;
41629;SDS011;27322;49.488;8.480;2022-09-09T07:47:21;5.03;;;0.65;;
41629;SDS011;27322;49.488;8.480;2022-09-09T07:49:49;5.07;;;0.70;;
41629;SDS011;27322;49.488;8.480;2022-09-09T07:52:15;1.88;;;0.52;;
41629;SDS011;27322;49.488;8.480;2022-09-09T07:54:41;9.90;;;1.05;;
41629;SDS011;27322;49.488;8.480;2022-09-09T07:57:07;5.80;;;0.82;;
41629;SDS011;27322;49.488;8.480;2022-09-09T07:59:33;6.18;;;0.80;;
41629;SDS011;27322;49.488;8.480;2022-09-09T08:01:58;7.15;;;0.98;;
41629;SDS011;27322;49.488;8.480;2022-09-09T08:04:24;7.18;;;0.77;;
41629;SDS011;27322;49.488;8.480;2022-09-09T08:06:57;8.45;;;0.73;;
41629;SDS011;27322;49.488;8.480;2022-09-09T08:09:25;5.05;;;0.75;;
41629;SDS011;27322;49.488;8.480;2022-09-09T08:11:53;4.88;;;0.80;;
41629;SDS011;27322;49.488;8.480;2022-09-09T08:14:21;6.25;;;1.15;;
41629;SDS011;27322;49.488;8.480;2022-09-09T08:16:48;5.47;;;0.80;;
41629;SDS011;27322;49.488;8.480;2022-09-09T08:19:15;4.85;;;1.00;;
41629;SDS011;27322;49.488;8.480;2022-09-09T08:21:41;5.13;;;0.70;;
41629;SDS011;27322;49.488;8.480;2022-09-09T08:24:08;3.50;;;0.68;;
41629;SDS011;27322;49.488;8.480;2022-09-09T08:26:36;4.20;;;0.90;;
41629;SDS011;27322;49.488;8.480;2022-09-09T08:29:04;5.28;;;0.70;;
41629;SDS011;27322;49.488;8.480;2022-09-09T08:33:59;5.35;;;0.85;;
41629;SDS011;27322;49.488;8.480;2022-09-09T08:36:27;5.50;;;0.90;;
41629;SDS011;27322;49.488;8.480;2022-09-09T08:38:56;4.38;;;0.70;;
41629;SDS011;27322;49.488;8.480;2022-09-09T08:44:07;9.50;;;1.13;;
41629;SDS011;27322;49.488;8.480;2022-09-09T08:53:02;5.15;;;0.73;;
41629;SDS011;27322;49.488;8.480;2022-09-09T08:57:54;7.88;;;0.80;;
41629;SDS011;27322;49.488;8.480;2022-09-09T09:00:21;6.90;;;0.90;;
41629;SDS011;27322;49.488;8.480;2022-09-09T09:02:59;4.15;;;0.65;;
41629;SDS011;27322;49.488;8.480;2022-09-09T09:08:38;7.47;;;0.85;;
41629;SDS011;27322;49.488;8.480;2022-09-09T09:11:14;5.40;;;0.80;;
41629;SDS011;27322;49.488;8.480;2022-09-09T09:13:42;5.15;;;0.75;;
41629;SDS011;27322;49.488;8.480;2022-09-09T09:16:33;10.93;;;1.67;;
41629;SDS011;27322;49.488;8.480;2022-09-09T09:19:38;6.53;;;0.80;;
41629;SDS011;27322;49.488;8.480;2022-09-09T09:22:10;3.90;;;0.70;;
41629;SDS011;27322;49.488;8.480;2022-09-09T09:35:53;6.63;;;1.00;;
41629;SDS011;27322;49.488;8.480;2022-09-09T09:38:19;5.70;;;1.00;;
41629;SDS011;27322;49.488;8.480;2022-09-09T09:40:52;6.90;;;0.90;;
41629;SDS011;27322;49.488;8.480;2022-09-09T09:45:59;6.13;;;0.90;;
41629;SDS011;27322;49.488;8.480;2022-09-09T09:48:26;7.18;;;1.02;;
41629;SDS011;27322;49.488;8.480;2022-09-09T09:53:31;9.75;;;1.20;;
41629;SDS011;27322;49.488;8.480;2022-09-09T09:56:03;7.07;;;1.00;;
41629;SDS011;27322;49.488;8.480;2022-09-09T10:01:19;9.43;;;1.30;;
41629;SDS011;27322;49.488;8.480;2022-09-09T10:03:53;6.50;;;1.10;;
41629;SDS011;27322;49.488;8.480;2022-09-09T10:08:58;2.97;;;0.52;;
41629;SDS011;27322;49.488;8.480;2022-09-09T10:19:21;3.60;;;0.70;;
41629;SDS011;27322;49.488;8.480;2022-09-09T10:22:04;3.42;;;0.50;;
41629;SDS011;27322;49.488;8.480;2022-09-09T10:32:49;4.97;;;0.90;;
41629;SDS011;27322;49.488;8.480;2022-09-09T10:38:15;5.78;;;0.77;;
41629;SDS011;27322;49.488;8.480;2022-09-09T10:51:24;5.57;;;0.70;;
41629;SDS011;27322;49.488;8.480;2022-09-09T10:54:21;3.53;;;0.70;;
41629;SDS011;27322;49.488;8.480;2022-09-09T10:57:04;5.30;;;0.87;;
41629;SDS011;27322;49.488;8.480;2022-09-09T10:59:40;7.32;;;1.10;;
41629;SDS011;27322;49.488;8.480;2022-09-09T11:02:15;4.47;;;0.68;;
41629;SDS011;27322;49.488;8.480;2022-09-09T11:07:19;5.07;;;0.98;;
41629;SDS011;27322;49.488;8.480;2022-09-09T11:09:58;4.53;;;0.95;;
41629;SDS011;27322;49.488;8.480;2022-09-09T11:12:27;6.45;;;1.10;;
41629;SDS011;27322;49.488;8.480;2022-09-09T11:14:59;7.28;;;1.02;;
41629;SDS011;27322;49.488;8.480;2022-09-09T11:17:40;4.72;;;0.98;;
41629;SDS011;27322;49.488;8.480;2022-09-09T11:20:12;4.40;;;0.70;;
41629;SDS011;27322;49.488;8.480;2022-09-09T11:22:40;3.75;;;0.70;;
41629;SDS011;27322;49.488;8.480;2022-09-09T11:30:46;6.45;;;0.93;;
41629;SDS011;27322;49.488;8.480;2022-09-09T11:33:53;4.07;;;0.75;;
41629;SDS011;27322;49.488;8.480;2022-09-09T11:41:42;4.30;;;0.70;;
41629;SDS011;27322;49.488;8.480;2022-09-09T11:44:11;4.15;;;0.80;;
41629;SDS011;27322;49.488;8.480;2022-09-09T11:46:42;7.45;;;1.10;;
41629;SDS011;27322;49.488;8.480;2022-09-09T11:49:27;4.70;;;0.95;;
41629;SDS011;27322;49.488;8.480;2022-09-09T11:54:50;4.95;;;0.98;;
41629;SDS011;27322;49.488;8.480;2022-09-09T11:57:24;6.63;;;1.00;;
41629;SDS011;27322;49.488;8.480;2022-09-09T12:00:01;4.45;;;0.80;;
41629;SDS011;27322;49.488;8.480;2022-09-09T12:02:28;7.65;;;1.08;;
41629;SDS011;27322;49.488;8.480;2022-09-09T12:07:31;5.07;;;0.80;;
41629;SDS011;27322;49.488;8.480;2022-09-09T12:13:19;6.25;;;0.80;;
41629;SDS011;27322;49.488;8.480;2022-09-09T12:15:48;8.07;;;0.80;;
41629;SDS011;27322;49.488;8.480;2022-09-09T12:26:30;5.18;;;0.55;;
41629;SDS011;27322;49.488;8.480;2022-09-09T12:31:58;4.90;;;0.73;;
41629;SDS011;27322;49.488;8.480;2022-09-09T12:34:50;5.47;;;0.98;;
41629;SDS011;27322;49.488;8.480;2022-09-09T12:40:04;4.28;;;0.60;;
41629;SDS011;27322;49.488;8.480;2022-09-09T12:42:44;5.25;;;1.35;;
41629;SDS011;27322;49.488;8.480;2022-09-09T12:45:20;7.00;;;1.52;;
41629;SDS011;27322;49.488;8.480;2022-09-09T12:50:19;8.38;;;1.40;;
41629;SDS011;27322;49.488;8.480;2022-09-09T12:53:00;5.63;;;1.42;;
41629;SDS011;27322;49.488;8.480;2022-09-09T12:55:29;6.30;;;1.40;;
41629;SDS011;27322;49.488;8.480;2022-09-09T12:57:58;10.00;;;2.22;;
41629;SDS011;27322;49.488;8.480;2022-09-09T13:00:25;7.88;;;2.28;;
41629;SDS011;27322;49.488;8.480;2022-09-09T13:02:53;12.23;;;2.17;;
41629;SDS011;27322;49.488;8.480;2022-09-09T13:08:04;5.78;;;1.73;;
41629;SDS011;27322;49.488;8.480;2022-09-09T13:10:57;8.23;;;1.90;;
41629;SDS011;27322;49.488;8.480;2022-09-09T13:13:29;9.65;;;1.95;;
41629;SDS011;27322;49.488;8.480;2022-09-09T13:18:27;10.43;;;3.00;;
41629;SDS011;27322;49.488;8.480;2022-09-09T13:21:00;14.95;;;3.28;;
41629;SDS011;27322;49.488;8.480;2022-09-09T13:23:32;15.23;;;2.97;;
41629;SDS011;27322;49.488;8.480;2022-09-09T13:26:03;20.85;;;2.90;;
41629;SDS011;27322;49.488;8.480;2022-09-09T13:28:31;13.43;;;2.55;;
41629;SDS011;27322;49.488;8.480;2022-09-09T13:31:04;9.80;;;1.90;;
41629;SDS011;27322;49.488;8.480;2022-09-09T13:33:44;8.52;;;1.20;;
41629;SDS011;27322;49.488;8.480;2022-09-09T13:36:10;6.40;;;1.00;;
41629;SDS011;27322;49.488;8.480;2022-09-09T13:38:40;4.68;;;1.20;;
41629;SDS011;27322;49.488;8.480;2022-09-09T13:41:22;7.85;;;0.90;;
41629;SDS011;27322;49.488;8.480;2022-09-09T13:43:50;5.18;;;0.80;;
41629;SDS011;27322;49.488;8.480;2022-09-09T13:48:58;3.20;;;0.73;;
41629;SDS011;27322;49.488;8.480;2022-09-09T13:51:47;3.40;;;0.68;;
41629;SDS011;27322;49.488;8.480;2022-09-09T13:54:16;2.88;;;0.80;;
41629;SDS011;27322;49.488;8.480;2022-09-09T13:56:46;6.05;;;0.98;;
41629;SDS011;27322;49.488;8.480;2022-09-09T13:59:13;4.43;;;0.80;;
41629;SDS011;27322;49.488;8.480;2022-09-09T14:01:40;3.28;;;0.70;;
41629;SDS011;27322;49.488;8.480;2022-09-09T14:04:06;5.72;;;0.80;;
41629;SDS011;27322;49.488;8.480;2022-09-09T14:06:33;3.70;;;1.10;;
41629;SDS011;27322;49.488;8.480;2022-09-09T14:09:02;4.55;;;0.90;;
41629;SDS011;27322;49.488;8.480;2022-09-09T14:11:28;2.60;;;0.52;;
41629;SDS011;27322;49.488;8.480;2022-09-09T14:13:53;2.97;;;0.60;;
41629;SDS011;27322;49.488;8.480;2022-09-09T14:16:19;3.38;;;0.40;;
41629;SDS011;27322;49.488;8.480;2022-09-09T14:18:46;2.15;;;0.30;;
41629;SDS011;27322;49.488;8.480;2022-09-09T14:21:12;3.28;;;0.35;;
41629;SDS011;27322;49.488;8.480;2022-09-09T14:23:39;4.35;;;0.40;;
41629;SDS011;27322;49.488;8.480;2022-09-09T14:26:05;2.00;;;0.30;;
41629;SDS011;27322;49.488;8.480;2022-09-09T14:28:31;3.10;;;0.30;;
41629;SDS011;27322;49.488;8.480;2022-09-09T14:31:02;2.30;;;0.40;;
41629;SDS011;27322;49.488;8.480;2022-09-09T14:33:29;2.92;;;0.30;;
41629;SDS011;27322;49.488;8.480;2022-09-09T14:35:58;1.60;;;0.40;;
41629;SDS011;27322;49.488;8.480;2022-09-09T14:38:26;1.80;;;0.40;;
41629;SDS011;27322;49.488;8.480;2022-09-09T14:40:54;3.22;;;0.40;;
41629;SDS011;27322;49.488;8.480;2022-09-09T14:43:21;3.65;;;0.50;;
41629;SDS011;27322;49.488;8.480;2022-09-09T14:45:46;3.45;;;0.50;;
41629;SDS011;27322;49.488;8.480;2022-09-09T14:48:18;4.43;;;0.52;;
41629;SDS011;27322;49.488;8.480;2022-09-09T14:50:44;2.80;;;0.70;;
41629;SDS011;27322;49.488;8.480;2022-09-09T14:53:10;1.85;;;0.55;;
41629;SDS011;27322;49.488;8.480;2022-09-09T14:55:36;1.98;;;0.43;;
41629;SDS011;27322;49.488;8.480;2022-09-09T14:58:02;3.85;;;0.60;;
41629;SDS011;27322;49.488;8.480;2022-09-09T15:00:28;1.67;;;0.55;;
41629;SDS011;27322;49.488;8.480;2022-09-09T15:02:54;4.57;;;0.60;;
41629;SDS011;27322;49.488;8.480;2022-09-09T15:05:20;3.05;;;0.93;;
41629;SDS011;27322;49.488;8.480;2022-09-09T15:07:47;26.25;;;23.17;;
41629;SDS011;27322;49.488;8.480;2022-09-09T15:10:16;4.35;;;1.70;;
41629;SDS011;27322;49.488;8.480;2022-09-09T15:12:42;4.47;;;0.98;;
41629;SDS011;27322;49.488;8.480;2022-09-09T15:15:08;5.78;;;0.90;;
41629;SDS011;27322;49.488;8.480;2022-09-09T15:17:35;5.05;;;0.68;;
41629;SDS011;27322;49.488;8.480;2022-09-09T15:20:02;3.85;;;0.50;;
41629;SDS011;27322;49.488;8.480;2022-09-09T15:22:30;6.28;;;0.65;;
41629;SDS011;27322;49.488;8.480;2022-09-09T15:24:56;4.32;;;0.65;;
41629;SDS011;27322;49.488;8.480;2022-09-09T15:27:22;5.05;;;0.90;;
41629;SDS011;27322;49.488;8.480;2022-09-09T15:29:48;3.63;;;0.60;;
41629;SDS011;27322;49.488;8.480;2022-09-09T15:32:16;5.20;;;0.75;;
41629;SDS011;27322;49.488;8.480;2022-09-09T15:34:42;3.92;;;0.52;;
41629;SDS011;27322;49.488;8.480;2022-09-09T15:37:11;4.43;;;0.73;;
41629;SDS011;27322;49.488;8.480;2022-09-09T15:39:40;3.03;;;0.60;;
41629;SDS011;27322;49.488;8.480;2022-09-09T15:42:09;5.07;;;0.73;;
41629;SDS011;27322;49.488;8.480;2022-09-09T15:44:39;2.30;;;0.75;;
41629;SDS011;27322;49.488;8.480;2022-09-09T15:47:07;4.35;;;0.70;;
41629;SDS011;27322;49.488;8.480;2022-09-09T15:49:35;3.35;;;0.93;;
41629;SDS011;27322;49.488;8.480;2022-09-09T15:52:01;4.65;;;0.80;;
41629;SDS011;27322;49.488;8.480;2022-09-09T15:54:30;6.15;;;0.85;;
41629;SDS011;27322;49.488;8.480;2022-09-09T15:56:59;9.02;;;1.30;;
41629;SDS011;27322;49.488;8.480;2022-09-09T15:59:26;5.07;;;1.02;;
41629;SDS011;27322;49.488;8.480;2022-09-09T16:01:53;6.15;;;1.20;;
41629;SDS011;27322;49.488;8.480;2022-09-09T16:04:20;7.82;;;1.25;;
41629;SDS011;27322;49.488;8.480;2022-09-09T16:06:50;3.85;;;0.90;;
41629;SDS011;27322;49.488;8.480;2022-09-09T16:09:17;6.47;;;1.13;;
41629;SDS011;27322;49.488;8.480;2022-09-09T16:11:44;2.45;;;0.80;;
41629;SDS011;27322;49.488;8.480;2022-09-09T16:14:10;3.20;;;0.80;;
41629;SDS011;27322;49.488;8.480;2022-09-09T16:16:36;5.68;;;0.70;;
41629;SDS011;27322;49.488;8.480;2022-09-09T16:19:03;3.60;;;0.80;;
41629;SDS011;27322;49.488;8.480;2022-09-09T16:21:52;3.88;;;0.70;;
41629;SDS011;27322;49.488;8.480;2022-09-09T16:24:18;2.77;;;0.53;;
41629;SDS011;27322;49.488;8.480;2022-09-09T16:26:49;2.72;;;0.50;;
41629;SDS011;27322;49.488;8.480;2022-09-09T16:29:16;3.42;;;0.70;;
41629;SDS011;27322;49.488;8.480;2022-09-09T16:31:44;4.40;;;0.70;;
41629;SDS011;27322;49.488;8.480;2022-09-09T16:34:10;4.68;;;0.70;;
41629;SDS011;27322;49.488;8.480;2022-09-09T16:36:37;4.57;;;0.55;;
41629;SDS011;27322;49.488;8.480;2022-09-09T16:39:07;3.17;;;0.60;;
41629;SDS011;27322;49.488;8.480;2022-09-09T16:41:34;3.53;;;0.60;;
41629;SDS011;27322;49.488;8.480;2022-09-09T16:44:05;3.67;;;0.50;;
41629;SDS011;27322;49.488;8.480;2022-09-09T16:46:33;3.33;;;0.50;;
41629;SDS011;27322;49.488;8.480;2022-09-09T16:49:03;2.25;;;0.50;;
41629;SDS011;27322;49.488;8.480;2022-09-09T16:51:31;4.65;;;0.52;;
41629;SDS011;27322;49.488;8.480;2022-09-09T16:53:59;2.38;;;0.60;;
41629;SDS011;27322;49.488;8.480;2022-09-09T16:56:27;2.17;;;0.50;;
41629;SDS011;27322;49.488;8.480;2022-09-09T16:58:58;3.15;;;0.80;;
41629;SDS011;27322;49.488;8.480;2022-09-09T17:01:26;3.33;;;0.68;;
41629;SDS011;27322;49.488;8.480;2022-09-09T17:03:54;2.15;;;0.65;;
41629;SDS011;27322;49.488;8.480;2022-09-09T17:06:20;2.85;;;0.77;;
41629;SDS011;27322;49.488;8.480;2022-09-09T17:08:46;2.22;;;0.70;;
41629;SDS011;27322;49.488;8.480;2022-09-09T17:11:18;4.15;;;1.27;;
41629;SDS011;27322;49.488;8.480;2022-09-09T17:13:47;4.05;;;0.90;;
41629;SDS011;27322;49.488;8.480;2022-09-09T17:16:14;4.60;;;1.10;;
41629;SDS011;27322;49.488;8.480;2022-09-09T17:18:41;4.50;;;0.85;;
41629;SDS011;27322;49.488;8.480;2022-09-09T17:21:08;3.28;;;0.60;;
41629;SDS011;27322;49.488;8.480;2022-09-09T17:23:37;4.22;;;1.00;;
41629;SDS011;27322;49.488;8.480;2022-09-09T17:26:06;2.83;;;0.80;;
41629;SDS011;27322;49.488;8.480;2022-09-09T17:28:35;1.95;;;0.90;;
41629;SDS011;27322;49.488;8.480;2022-09-09T17:31:03;2.78;;;1.00;;
41629;SDS011;27322;49.488;8.480;2022-09-09T17:33:32;3.25;;;0.82;;
41629;SDS011;27322;49.488;8.480;2022-09-09T17:35:58;5.03;;;1.02;;
41629;SDS011;27322;49.488;8.480;2022-09-09T17:38:26;1.70;;;0.55;;
41629;SDS011;27322;49.488;8.480;2022-09-09T17:41:02;2.55;;;0.60;;
41629;SDS011;27322;49.488;8.480;2022-09-09T17:43:33;3.65;;;0.80;;